createdAt,value
2022-11-20T00:05:00.033Z,0
2022-11-20T00:10:00.404Z,0
2022-11-20T00:14:59.896Z,0
2022-11-20T00:19:59.934Z,0
2022-11-20T00:25:00.021Z,0
2022-11-20T00:30:00.464Z,0
2022-11-20T00:35:00.384Z,0
2022-11-20T00:39:59.886Z,0
2022-11-20T00:44:59.918Z,0
2022-11-20T00:49:59.904Z,0
2022-11-20T00:54:59.851Z,0
2022-11-20T01:00:00.165Z,0
2022-11-20T01:05:00.090Z,0
2022-11-20T01:10:00.088Z,0
2022-11-20T01:14:59.960Z,0
2022-11-20T01:20:00.105Z,0
2022-11-20T01:25:00.058Z,0
2022-11-20T01:30:01.429Z,0
2022-11-20T01:35:00.017Z,0
2022-11-20T01:40:00.015Z,0
2022-11-20T01:45:00.029Z,0
2022-11-20T01:49:59.952Z,0
2022-11-20T01:54:59.977Z,0
2022-11-20T01:59:59.766Z,0
2022-11-20T02:04:59.891Z,0
2022-11-20T02:09:59.848Z,0
2022-11-20T02:14:59.974Z,0
2022-11-20T02:20:00.334Z,0
2022-11-20T02:24:59.766Z,0
2022-11-20T02:29:59.833Z,0
2022-11-20T02:34:59.742Z,0
2022-11-20T02:39:59.986Z,0
2022-11-20T02:45:00.007Z,0
2022-11-20T02:49:59.727Z,0
2022-11-20T02:55:00.046Z,0
2022-11-20T02:59:59.981Z,0
2022-11-20T03:04:59.665Z,0
2022-11-20T03:09:59.759Z,0
2022-11-20T03:15:00.000Z,0
2022-11-20T03:19:59.831Z,0
2022-11-20T03:24:59.857Z,0
2022-11-20T03:29:59.758Z,0
2022-11-20T03:34:59.697Z,0
2022-11-20T03:39:59.793Z,0
2022-11-20T03:44:59.905Z,0
2022-11-20T03:49:59.909Z,0
2022-11-20T03:55:00.087Z,0
2022-11-20T03:59:59.632Z,0
2022-11-20T04:04:59.764Z,0
2022-11-20T04:09:59.971Z,0
2022-11-20T04:14:59.811Z,0
2022-11-20T04:19:59.688Z,0
2022-11-20T04:24:59.606Z,0
2022-11-20T04:29:59.768Z,0
2022-11-20T04:34:59.904Z,0
2022-11-20T04:39:59.610Z,0
2022-11-20T04:44:59.817Z,0
2022-11-20T04:49:59.999Z,0
2022-11-20T04:54:59.642Z,0
2022-11-20T04:59:59.833Z,0
2022-11-20T05:04:59.599Z,0
2022-11-20T05:09:59.624Z,0
2022-11-20T05:14:59.693Z,0
2022-11-20T05:19:59.757Z,0
2022-11-20T05:24:59.778Z,0
2022-11-20T05:29:59.645Z,0
2022-11-20T05:34:59.712Z,0
2022-11-20T05:39:59.557Z,0
2022-11-20T05:44:59.604Z,0
2022-11-20T05:49:59.502Z,0
2022-11-20T05:54:59.530Z,0
2022-11-20T05:59:59.853Z,0
2022-11-20T06:04:59.795Z,0
2022-11-20T06:09:59.924Z,0
2022-11-20T06:14:59.853Z,0
2022-11-20T06:19:59.864Z,0
2022-11-20T06:24:59.832Z,0
2022-11-20T06:29:59.593Z,0
2022-11-20T06:34:59.445Z,0
2022-11-20T06:39:59.658Z,0
2022-11-20T06:44:59.833Z,0
2022-11-20T06:49:59.814Z,0
2022-11-20T06:54:59.659Z,0
2022-11-20T06:59:59.787Z,0
2022-11-20T07:04:59.532Z,0.5
2022-11-20T07:09:59.752Z,1.2
2022-11-20T07:14:59.691Z,2
2022-11-20T07:19:59.820Z,3
2022-11-20T07:24:59.666Z,4.4
2022-11-20T07:29:59.763Z,5.9
2022-11-20T07:34:59.686Z,7.8
2022-11-20T07:39:59.579Z,10.6
2022-11-20T07:44:59.780Z,14.2
2022-11-20T07:49:59.436Z,16.4
2022-11-20T07:54:59.490Z,17.6
2022-11-20T07:59:59.602Z,19.2
2022-11-20T08:04:59.694Z,21
2022-11-20T08:09:59.474Z,24.4
2022-11-20T08:14:59.674Z,25.2
2022-11-20T08:19:59.773Z,26.5
2022-11-20T08:24:59.757Z,26.8
2022-11-20T08:29:59.388Z,26.3
2022-11-20T08:34:59.499Z,25.4
2022-11-20T08:39:59.381Z,28.8
2022-11-20T08:44:59.583Z,34.3
2022-11-20T08:49:59.357Z,38.5
2022-11-20T08:54:59.354Z,41.6
2022-11-20T09:00:05.947Z,44.5
2022-11-20T09:04:59.309Z,48.8
2022-11-20T09:10:22.532Z,51.8
2022-11-20T09:14:59.639Z,52.4
2022-11-20T09:19:59.330Z,53.4
2022-11-20T09:24:59.672Z,59.8
2022-11-20T09:29:59.415Z,64.8
2022-11-20T09:39:59.372Z,73.7
2022-11-20T09:44:59.575Z,75.7
2022-11-20T09:49:59.588Z,77.1
2022-11-20T09:54:59.322Z,78.7
2022-11-20T09:59:59.402Z,80.7
2022-11-20T10:04:59.442Z,82.4
2022-11-20T10:09:59.531Z,81.9
2022-11-20T10:14:59.505Z,83
2022-11-20T10:19:59.466Z,90.6
2022-11-20T10:24:59.512Z,91.4
2022-11-20T10:29:59.561Z,90.5
2022-11-20T10:34:59.407Z,85
2022-11-20T10:39:59.358Z,82.4
2022-11-20T10:45:02.778Z,81.8
2022-11-20T10:49:59.513Z,85.1
2022-11-20T10:54:59.412Z,85.6
2022-11-20T10:59:59.328Z,87.2
2022-11-20T11:04:59.543Z,89.2
2022-11-20T11:09:59.266Z,77.1
2022-11-20T11:14:59.485Z,53.4
2022-11-20T11:19:59.190Z,55.1
2022-11-20T11:24:59.395Z,54.3
2022-11-20T11:29:59.266Z,46.7
2022-11-20T11:34:59.446Z,40.7
2022-11-20T11:40:22.791Z,40
2022-11-20T11:44:59.428Z,35.5
2022-11-20T11:49:59.131Z,40.5
2022-11-20T11:54:59.515Z,41.6
2022-11-20T11:59:59.330Z,39.7
2022-11-20T12:04:59.203Z,42.1
2022-11-20T12:09:59.438Z,43.1
2022-11-20T12:14:59.352Z,41.3
2022-11-20T12:19:59.351Z,32.4
2022-11-20T12:24:59.279Z,25.1
2022-11-20T12:29:59.390Z,21.9
2022-11-20T12:34:59.571Z,26.4
2022-11-20T12:39:59.195Z,29.3
2022-11-20T12:44:59.445Z,28.5
2022-11-20T12:49:59.529Z,32.9
2022-11-20T12:54:59.098Z,28.7
2022-11-20T12:59:59.149Z,27.6
2022-11-20T13:04:59.131Z,24.7
2022-11-20T13:09:59.895Z,24.1
2022-11-20T13:14:59.300Z,21.1
2022-11-20T13:19:59.323Z,16.3
2022-11-20T13:24:59.140Z,13.5
2022-11-20T13:30:00.884Z,11.5
2022-11-20T13:34:59.334Z,9.6
2022-11-20T13:39:59.426Z,10.7
2022-11-20T13:44:59.350Z,8.2
2022-11-20T13:49:59.235Z,8.2
2022-11-20T13:54:58.988Z,12.7
2022-11-20T13:59:59.421Z,16.6
2022-11-20T14:04:59.366Z,13.4
2022-11-20T14:09:59.280Z,12.4
2022-11-20T14:14:59.058Z,13
2022-11-20T14:19:59.261Z,14.6
2022-11-20T14:24:59.342Z,9.7
2022-11-20T14:30:00.739Z,7.5
2022-11-20T14:34:59.043Z,4.3
2022-11-20T14:39:59.026Z,3.1
2022-11-20T14:44:58.999Z,2.6
2022-11-20T14:49:59.080Z,1.7
2022-11-20T14:54:59.404Z,1.1
2022-11-20T14:59:59.338Z,0.4
2022-11-20T15:04:59.240Z,0.1
2022-11-20T15:09:59.703Z,0
2022-11-20T15:14:59.257Z,0
2022-11-20T15:19:58.970Z,0.1
2022-11-20T15:24:58.994Z,0
2022-11-20T15:29:59.010Z,0
2022-11-20T15:34:59.297Z,0
2022-11-20T15:39:59.350Z,0
2022-11-20T15:44:58.991Z,0
2022-11-20T15:49:59.315Z,0
2022-11-20T15:54:59.166Z,0
2022-11-20T15:59:58.972Z,0
2022-11-20T16:04:59.206Z,0
2022-11-20T16:09:59.231Z,0
2022-11-20T16:14:59.160Z,0
2022-11-20T16:19:59.230Z,0
2022-11-20T16:24:59.294Z,0
2022-11-20T16:29:59.111Z,0
2022-11-20T16:34:59.194Z,0
2022-11-20T16:39:59.076Z,0
2022-11-20T16:44:58.959Z,0
2022-11-20T16:49:59.016Z,0
2022-11-20T16:54:59.091Z,0
2022-11-20T17:00:02.324Z,0
2022-11-20T17:04:58.960Z,0
2022-11-20T17:09:59.033Z,0
2022-11-20T17:14:59.220Z,0
2022-11-20T17:19:59.033Z,0
2022-11-20T17:24:59.038Z,0
2022-11-20T17:29:58.868Z,0
2022-11-20T17:34:59.146Z,0
2022-11-20T17:39:59.143Z,0
2022-11-20T17:44:58.920Z,0
2022-11-20T17:50:00.523Z,0
2022-11-20T17:55:00.477Z,0
2022-11-20T18:00:00.538Z,0
2022-11-20T18:05:00.374Z,0
2022-11-20T18:10:00.484Z,0
2022-11-20T18:15:00.492Z,0
2022-11-20T18:20:27.417Z,0
2022-11-20T18:25:00.391Z,0
2022-11-20T18:30:00.599Z,0
2022-11-20T18:35:00.411Z,0
2022-11-20T18:40:00.464Z,0
2022-11-20T18:45:00.541Z,0
2022-11-20T18:50:00.482Z,0
2022-11-20T18:55:00.419Z,0
2022-11-20T19:00:06.495Z,0
2022-11-20T19:05:00.373Z,0
2022-11-20T19:10:03.686Z,0
2022-11-20T19:15:00.377Z,0
2022-11-20T19:20:00.502Z,0
2022-11-20T19:25:00.418Z,0
2022-11-20T19:30:00.382Z,0
2022-11-20T19:35:00.341Z,0
2022-11-20T19:40:00.414Z,0
2022-11-20T19:45:00.406Z,0
2022-11-20T19:50:00.438Z,0
2022-11-20T19:55:00.614Z,0
2022-11-20T20:00:00.536Z,0
2022-11-20T20:05:00.410Z,0
2022-11-20T20:10:00.172Z,0
2022-11-20T20:15:00.444Z,0
2022-11-20T20:20:00.494Z,0
2022-11-20T20:25:00.125Z,0
2022-11-20T20:30:00.402Z,0
2022-11-20T20:35:00.435Z,0
2022-11-20T20:40:00.407Z,0
2022-11-20T20:45:00.272Z,0
2022-11-20T20:50:00.382Z,0
2022-11-20T20:55:00.414Z,0
2022-11-20T21:00:00.349Z,0
2022-11-20T21:05:00.267Z,0
2022-11-20T21:10:00.387Z,0
2022-11-20T21:15:00.092Z,0
2022-11-20T21:20:00.389Z,0
2022-11-20T21:25:00.017Z,0
2022-11-20T21:30:00.335Z,0
2022-11-20T21:35:00.425Z,0
2022-11-20T21:40:00.039Z,0
2022-11-20T21:45:00.434Z,0
2022-11-20T21:50:00.516Z,0
2022-11-20T21:55:00.465Z,0
2022-11-20T22:00:00.194Z,0
2022-11-20T22:05:00.439Z,0
2022-11-20T22:10:00.121Z,0
2022-11-20T22:15:00.074Z,0
2022-11-20T22:20:00.522Z,0
2022-11-20T22:24:59.968Z,0
2022-11-20T22:30:00.096Z,0
2022-11-20T22:34:59.968Z,0
2022-11-20T22:40:00.191Z,0
2022-11-20T22:45:00.200Z,0
2022-11-20T22:50:00.419Z,0
2022-11-20T22:54:59.985Z,0
2022-11-20T23:00:00.319Z,0
2022-11-20T23:05:00.368Z,0
2022-11-20T23:10:00.200Z,0
2022-11-20T23:15:00.120Z,0
2022-11-20T23:19:59.888Z,0
2022-11-20T23:25:00.357Z,0
2022-11-20T23:30:00.057Z,0
2022-11-20T23:34:59.993Z,0
2022-11-20T23:40:00.161Z,0
2022-11-20T23:45:00.105Z,0
2022-11-20T23:49:59.885Z,0
2022-11-20T23:55:00.098Z,0
2022-11-20T23:59:59.983Z,0
